sensor_id;sensor_type;location;lat;lon;timestamp;P1;durP1;ratioP1;P2;durP2;ratioP2
11191;SDS011;5652;48.406;10.820;2022-07-29T00:01:51;0.40;;;0.30;;
11191;SDS011;5652;48.406;10.820;2022-07-29T00:04:18;0.40;;;0.40;;
11191;SDS011;5652;48.406;10.820;2022-07-29T00:06:45;0.40;;;0.40;;
11191;SDS011;5652;48.406;10.820;2022-07-29T00:09:12;0.30;;;0.30;;
11191;SDS011;5652;48.406;10.820;2022-07-29T00:11:39;0.20;;;0.20;;
11191;SDS011;5652;48.406;10.820;2022-07-29T00:14:06;0.50;;;0.50;;
11191;SDS011;5652;48.406;10.820;2022-07-29T00:16:35;0.20;;;0.20;;
11191;SDS011;5652;48.406;10.820;2022-07-29T00:19:02;0.20;;;0.20;;
11191;SDS011;5652;48.406;10.820;2022-07-29T00:21:30;0.20;;;0.20;;
11191;SDS011;5652;48.406;10.820;2022-07-29T00:23:57;0.30;;;0.30;;
11191;SDS011;5652;48.406;10.820;2022-07-29T00:26:24;0.50;;;0.50;;
11191;SDS011;5652;48.406;10.820;2022-07-29T00:28:52;0.30;;;0.30;;
11191;SDS011;5652;48.406;10.820;2022-07-29T00:31:19;0.10;;;0.10;;
11191;SDS011;5652;48.406;10.820;2022-07-29T00:33:48;0.30;;;0.30;;
11191;SDS011;5652;48.406;10.820;2022-07-29T00:36:16;0.70;;;0.70;;
11191;SDS011;5652;48.406;10.820;2022-07-29T00:38:43;0.20;;;0.20;;
11191;SDS011;5652;48.406;10.820;2022-07-29T00:41:11;0.10;;;0.10;;
11191;SDS011;5652;48.406;10.820;2022-07-29T00:43:38;0.90;;;0.50;;
11191;SDS011;5652;48.406;10.820;2022-07-29T00:46:05;0.65;;;0.60;;
11191;SDS011;5652;48.406;10.820;2022-07-29T00:48:33;0.20;;;0.20;;
11191;SDS011;5652;48.406;10.820;2022-07-29T00:51:02;0.20;;;0.20;;
11191;SDS011;5652;48.406;10.820;2022-07-29T00:53:29;0.30;;;0.30;;
11191;SDS011;5652;48.406;10.820;2022-07-29T00:55:56;0.30;;;0.30;;
11191;SDS011;5652;48.406;10.820;2022-07-29T00:58:24;0.10;;;0.10;;
11191;SDS011;5652;48.406;10.820;2022-07-29T01:00:53;0.45;;;0.45;;
11191;SDS011;5652;48.406;10.820;2022-07-29T01:03:20;0.47;;;0.47;;
11191;SDS011;5652;48.406;10.820;2022-07-29T01:05:47;0.30;;;0.30;;
11191;SDS011;5652;48.406;10.820;2022-07-29T01:08:15;0.10;;;0.10;;
11191;SDS011;5652;48.406;10.820;2022-07-29T01:10:43;0.40;;;0.40;;
11191;SDS011;5652;48.406;10.820;2022-07-29T01:13:11;0.25;;;0.25;;
11191;SDS011;5652;48.406;10.820;2022-07-29T01:15:40;0.20;;;0.20;;
11191;SDS011;5652;48.406;10.820;2022-07-29T01:18:11;0.32;;;0.32;;
11191;SDS011;5652;48.406;10.820;2022-07-29T01:20:44;0.10;;;0.10;;
11191;SDS011;5652;48.406;10.820;2022-07-29T01:23:25;0.40;;;0.40;;
11191;SDS011;5652;48.406;10.820;2022-07-29T01:28:49;0.43;;;0.43;;
11191;SDS011;5652;48.406;10.820;2022-07-29T01:31:20;0.20;;;0.20;;
11191;SDS011;5652;48.406;10.820;2022-07-29T01:33:50;0.60;;;0.60;;
11191;SDS011;5652;48.406;10.820;2022-07-29T01:36:22;0.57;;;0.57;;
11191;SDS011;5652;48.406;10.820;2022-07-29T01:38:53;0.20;;;0.20;;
11191;SDS011;5652;48.406;10.820;2022-07-29T01:41:21;0.50;;;0.50;;
11191;SDS011;5652;48.406;10.820;2022-07-29T01:43:52;0.28;;;0.28;;
11191;SDS011;5652;48.406;10.820;2022-07-29T01:46:21;0.50;;;0.50;;
11191;SDS011;5652;48.406;10.820;2022-07-29T01:48:51;0.50;;;0.50;;
11191;SDS011;5652;48.406;10.820;2022-07-29T01:51:20;0.65;;;0.65;;
11191;SDS011;5652;48.406;10.820;2022-07-29T01:53:59;0.52;;;0.52;;
11191;SDS011;5652;48.406;10.820;2022-07-29T01:56:28;0.35;;;0.35;;
11191;SDS011;5652;48.406;10.820;2022-07-29T01:59:00;0.50;;;0.50;;
11191;SDS011;5652;48.406;10.820;2022-07-29T02:01:27;0.90;;;0.90;;
11191;SDS011;5652;48.406;10.820;2022-07-29T02:03:57;0.22;;;0.22;;
11191;SDS011;5652;48.406;10.820;2022-07-29T02:06:26;0.10;;;0.10;;
11191;SDS011;5652;48.406;10.820;2022-07-29T02:08:54;1.05;;;0.55;;
11191;SDS011;5652;48.406;10.820;2022-07-29T02:11:22;1.10;;;0.70;;
11191;SDS011;5652;48.406;10.820;2022-07-29T02:13:50;0.35;;;0.35;;
11191;SDS011;5652;48.406;10.820;2022-07-29T02:16:20;0.52;;;0.52;;
11191;SDS011;5652;48.406;10.820;2022-07-29T02:18:48;0.45;;;0.45;;
11191;SDS011;5652;48.406;10.820;2022-07-29T02:21:16;0.70;;;0.70;;
11191;SDS011;5652;48.406;10.820;2022-07-29T02:23:46;0.70;;;0.70;;
11191;SDS011;5652;48.406;10.820;2022-07-29T02:26:14;1.90;;;0.70;;
11191;SDS011;5652;48.406;10.820;2022-07-29T02:28:43;0.80;;;0.80;;
11191;SDS011;5652;48.406;10.820;2022-07-29T02:31:11;0.50;;;0.50;;
11191;SDS011;5652;48.406;10.820;2022-07-29T02:33:41;0.45;;;0.45;;
11191;SDS011;5652;48.406;10.820;2022-07-29T02:36:08;0.30;;;0.30;;
11191;SDS011;5652;48.406;10.820;2022-07-29T02:38:35;0.32;;;0.32;;
11191;SDS011;5652;48.406;10.820;2022-07-29T02:41:19;0.40;;;0.40;;
11191;SDS011;5652;48.406;10.820;2022-07-29T02:43:47;0.30;;;0.30;;
11191;SDS011;5652;48.406;10.820;2022-07-29T02:46:16;0.30;;;0.30;;
11191;SDS011;5652;48.406;10.820;2022-07-29T02:48:50;0.50;;;0.50;;
11191;SDS011;5652;48.406;10.820;2022-07-29T02:51:19;0.60;;;0.60;;
11191;SDS011;5652;48.406;10.820;2022-07-29T02:53:46;1.10;;;0.70;;
11191;SDS011;5652;48.406;10.820;2022-07-29T02:56:16;0.40;;;0.40;;
11191;SDS011;5652;48.406;10.820;2022-07-29T02:58:47;0.57;;;0.57;;
11191;SDS011;5652;48.406;10.820;2022-07-29T03:01:16;0.40;;;0.30;;
11191;SDS011;5652;48.406;10.820;2022-07-29T03:03:48;0.60;;;0.60;;
11191;SDS011;5652;48.406;10.820;2022-07-29T03:06:16;0.95;;;0.90;;
11191;SDS011;5652;48.406;10.820;2022-07-29T03:08:45;0.60;;;0.60;;
11191;SDS011;5652;48.406;10.820;2022-07-29T03:11:12;0.80;;;0.70;;
11191;SDS011;5652;48.406;10.820;2022-07-29T03:13:40;0.35;;;0.35;;
11191;SDS011;5652;48.406;10.820;2022-07-29T03:16:07;0.60;;;0.40;;
11191;SDS011;5652;48.406;10.820;2022-07-29T03:18:37;0.38;;;0.38;;
11191;SDS011;5652;48.406;10.820;2022-07-29T03:21:06;0.90;;;0.70;;
11191;SDS011;5652;48.406;10.820;2022-07-29T03:23:33;0.28;;;0.28;;
11191;SDS011;5652;48.406;10.820;2022-07-29T03:26:00;0.50;;;0.50;;
11191;SDS011;5652;48.406;10.820;2022-07-29T03:28:27;0.35;;;0.35;;
11191;SDS011;5652;48.406;10.820;2022-07-29T03:30:54;0.55;;;0.55;;
11191;SDS011;5652;48.406;10.820;2022-07-29T03:33:24;0.57;;;0.57;;
11191;SDS011;5652;48.406;10.820;2022-07-29T03:35:51;0.85;;;0.65;;
11191;SDS011;5652;48.406;10.820;2022-07-29T03:38:20;0.50;;;0.38;;
11191;SDS011;5652;48.406;10.820;2022-07-29T03:40:48;0.43;;;0.43;;
11191;SDS011;5652;48.406;10.820;2022-07-29T03:43:16;0.47;;;0.47;;
11191;SDS011;5652;48.406;10.820;2022-07-29T03:45:45;0.43;;;0.43;;
11191;SDS011;5652;48.406;10.820;2022-07-29T03:48:16;0.60;;;0.60;;
11191;SDS011;5652;48.406;10.820;2022-07-29T03:50:44;0.60;;;0.60;;
11191;SDS011;5652;48.406;10.820;2022-07-29T03:53:12;0.50;;;0.50;;
11191;SDS011;5652;48.406;10.820;2022-07-29T03:55:41;0.50;;;0.50;;
11191;SDS011;5652;48.406;10.820;2022-07-29T03:58:09;0.43;;;0.43;;
11191;SDS011;5652;48.406;10.820;2022-07-29T04:00:37;0.50;;;0.50;;
11191;SDS011;5652;48.406;10.820;2022-07-29T04:03:04;6.78;;;1.02;;
11191;SDS011;5652;48.406;10.820;2022-07-29T04:05:32;0.60;;;0.60;;
11191;SDS011;5652;48.406;10.820;2022-07-29T04:07:59;0.63;;;0.43;;
11191;SDS011;5652;48.406;10.820;2022-07-29T04:10:26;0.38;;;0.38;;
11191;SDS011;5652;48.406;10.820;2022-07-29T04:12:55;0.60;;;0.60;;
11191;SDS011;5652;48.406;10.820;2022-07-29T04:15:22;1.10;;;1.00;;
11191;SDS011;5652;48.406;10.820;2022-07-29T04:17:49;0.50;;;0.50;;
11191;SDS011;5652;48.406;10.820;2022-07-29T04:20:16;0.45;;;0.45;;
11191;SDS011;5652;48.406;10.820;2022-07-29T04:22:44;0.47;;;0.47;;
11191;SDS011;5652;48.406;10.820;2022-07-29T04:25:11;0.57;;;0.57;;
11191;SDS011;5652;48.406;10.820;2022-07-29T04:27:38;0.68;;;0.68;;
11191;SDS011;5652;48.406;10.820;2022-07-29T04:30:26;0.80;;;0.80;;
11191;SDS011;5652;48.406;10.820;2022-07-29T04:32:53;0.70;;;0.70;;
11191;SDS011;5652;48.406;10.820;2022-07-29T04:35:20;1.25;;;0.32;;
11191;SDS011;5652;48.406;10.820;2022-07-29T04:37:47;0.50;;;0.50;;
11191;SDS011;5652;48.406;10.820;2022-07-29T04:40:15;0.45;;;0.45;;
11191;SDS011;5652;48.406;10.820;2022-07-29T04:42:42;0.70;;;0.70;;
11191;SDS011;5652;48.406;10.820;2022-07-29T04:45:09;0.22;;;0.22;;
11191;SDS011;5652;48.406;10.820;2022-07-29T04:47:38;0.87;;;0.77;;
11191;SDS011;5652;48.406;10.820;2022-07-29T04:50:06;0.60;;;0.60;;
11191;SDS011;5652;48.406;10.820;2022-07-29T04:52:34;0.88;;;0.88;;
11191;SDS011;5652;48.406;10.820;2022-07-29T04:55:02;0.70;;;0.70;;
11191;SDS011;5652;48.406;10.820;2022-07-29T04:57:29;1.00;;;0.90;;
11191;SDS011;5652;48.406;10.820;2022-07-29T04:59:56;0.68;;;0.68;;
11191;SDS011;5652;48.406;10.820;2022-07-29T05:02:25;1.08;;;0.73;;
11191;SDS011;5652;48.406;10.820;2022-07-29T05:04:54;0.40;;;0.40;;
11191;SDS011;5652;48.406;10.820;2022-07-29T05:07:21;0.50;;;0.50;;
11191;SDS011;5652;48.406;10.820;2022-07-29T05:09:48;1.48;;;0.88;;
11191;SDS011;5652;48.406;10.820;2022-07-29T05:12:15;0.68;;;0.68;;
11191;SDS011;5652;48.406;10.820;2022-07-29T05:14:42;0.85;;;0.85;;
11191;SDS011;5652;48.406;10.820;2022-07-29T05:17:09;0.80;;;0.80;;
11191;SDS011;5652;48.406;10.820;2022-07-29T05:19:36;1.25;;;0.95;;
11191;SDS011;5652;48.406;10.820;2022-07-29T05:22:05;0.75;;;0.75;;
11191;SDS011;5652;48.406;10.820;2022-07-29T05:24:32;1.25;;;0.85;;
11191;SDS011;5652;48.406;10.820;2022-07-29T05:27:00;0.55;;;0.55;;
11191;SDS011;5652;48.406;10.820;2022-07-29T05:29:27;1.07;;;0.97;;
11191;SDS011;5652;48.406;10.820;2022-07-29T05:31:54;1.17;;;1.13;;
11191;SDS011;5652;48.406;10.820;2022-07-29T05:34:21;1.75;;;1.10;;
11191;SDS011;5652;48.406;10.820;2022-07-29T05:36:50;0.80;;;0.80;;
11191;SDS011;5652;48.406;10.820;2022-07-29T05:39:18;0.80;;;0.80;;
11191;SDS011;5652;48.406;10.820;2022-07-29T05:41:45;5.13;;;1.60;;
11191;SDS011;5652;48.406;10.820;2022-07-29T05:44:13;1.02;;;1.02;;
11191;SDS011;5652;48.406;10.820;2022-07-29T05:46:40;3.20;;;1.58;;
11191;SDS011;5652;48.406;10.820;2022-07-29T05:49:07;4.07;;;1.27;;
11191;SDS011;5652;48.406;10.820;2022-07-29T05:51:34;2.58;;;2.03;;
11191;SDS011;5652;48.406;10.820;2022-07-29T05:54:02;1.23;;;1.13;;
11191;SDS011;5652;48.406;10.820;2022-07-29T05:56:30;1.20;;;1.10;;
11191;SDS011;5652;48.406;10.820;2022-07-29T05:58:58;0.68;;;0.68;;
11191;SDS011;5652;48.406;10.820;2022-07-29T06:01:26;1.50;;;1.00;;
11191;SDS011;5652;48.406;10.820;2022-07-29T06:03:53;1.25;;;1.15;;
11191;SDS011;5652;48.406;10.820;2022-07-29T06:06:20;0.45;;;0.45;;
11191;SDS011;5652;48.406;10.820;2022-07-29T06:08:49;0.90;;;0.90;;
11191;SDS011;5652;48.406;10.820;2022-07-29T06:11:17;0.60;;;0.60;;
11191;SDS011;5652;48.406;10.820;2022-07-29T06:13:45;0.77;;;0.77;;
11191;SDS011;5652;48.406;10.820;2022-07-29T06:16:12;1.65;;;1.30;;
11191;SDS011;5652;48.406;10.820;2022-07-29T06:18:39;0.65;;;0.65;;
11191;SDS011;5652;48.406;10.820;2022-07-29T06:21:07;1.02;;;0.93;;
11191;SDS011;5652;48.406;10.820;2022-07-29T06:23:35;1.00;;;0.90;;
11191;SDS011;5652;48.406;10.820;2022-07-29T06:26:02;0.75;;;0.75;;
11191;SDS011;5652;48.406;10.820;2022-07-29T06:28:29;0.50;;;0.50;;
11191;SDS011;5652;48.406;10.820;2022-07-29T06:30:58;0.82;;;0.82;;
11191;SDS011;5652;48.406;10.820;2022-07-29T06:33:25;0.63;;;0.63;;
11191;SDS011;5652;48.406;10.820;2022-07-29T06:35:52;0.75;;;0.75;;
11191;SDS011;5652;48.406;10.820;2022-07-29T06:38:19;2.00;;;1.10;;
11191;SDS011;5652;48.406;10.820;2022-07-29T06:40:47;6.60;;;4.97;;
11191;SDS011;5652;48.406;10.820;2022-07-29T06:43:27;6.53;;;4.77;;
11191;SDS011;5652;48.406;10.820;2022-07-29T06:45:56;7.30;;;4.68;;
11191;SDS011;5652;48.406;10.820;2022-07-29T06:48:25;7.93;;;4.90;;
11191;SDS011;5652;48.406;10.820;2022-07-29T06:50:52;5.45;;;4.60;;
11191;SDS011;5652;48.406;10.820;2022-07-29T06:53:19;8.35;;;5.10;;
11191;SDS011;5652;48.406;10.820;2022-07-29T06:55:46;6.40;;;5.00;;
11191;SDS011;5652;48.406;10.820;2022-07-29T06:58:13;5.32;;;4.25;;
11191;SDS011;5652;48.406;10.820;2022-07-29T07:00:42;6.53;;;4.30;;
11191;SDS011;5652;48.406;10.820;2022-07-29T07:03:10;5.80;;;4.57;;
11191;SDS011;5652;48.406;10.820;2022-07-29T07:05:39;6.68;;;4.25;;
11191;SDS011;5652;48.406;10.820;2022-07-29T07:08:06;5.65;;;4.43;;
11191;SDS011;5652;48.406;10.820;2022-07-29T07:10:33;6.68;;;4.78;;
11191;SDS011;5652;48.406;10.820;2022-07-29T07:13:01;6.03;;;4.25;;
11191;SDS011;5652;48.406;10.820;2022-07-29T07:15:28;5.97;;;4.43;;
11191;SDS011;5652;48.406;10.820;2022-07-29T07:17:55;5.93;;;4.70;;
11191;SDS011;5652;48.406;10.820;2022-07-29T07:20:22;7.53;;;4.80;;
11191;SDS011;5652;48.406;10.820;2022-07-29T07:22:51;4.77;;;4.20;;
11191;SDS011;5652;48.406;10.820;2022-07-29T07:25:18;4.80;;;4.00;;
11191;SDS011;5652;48.406;10.820;2022-07-29T07:27:47;5.43;;;3.78;;
11191;SDS011;5652;48.406;10.820;2022-07-29T07:30:14;4.43;;;3.40;;
11191;SDS011;5652;48.406;10.820;2022-07-29T07:32:41;3.90;;;3.20;;
11191;SDS011;5652;48.406;10.820;2022-07-29T07:35:09;5.15;;;3.90;;
11191;SDS011;5652;48.406;10.820;2022-07-29T07:37:36;5.55;;;4.32;;
11191;SDS011;5652;48.406;10.820;2022-07-29T07:40:07;5.80;;;4.38;;
11191;SDS011;5652;48.406;10.820;2022-07-29T07:42:35;5.53;;;4.70;;
11191;SDS011;5652;48.406;10.820;2022-07-29T07:45:02;6.15;;;4.43;;
11191;SDS011;5652;48.406;10.820;2022-07-29T07:47:30;4.22;;;3.53;;
11191;SDS011;5652;48.406;10.820;2022-07-29T07:49:57;4.32;;;3.65;;
11191;SDS011;5652;48.406;10.820;2022-07-29T07:52:25;5.72;;;4.10;;
11191;SDS011;5652;48.406;10.820;2022-07-29T07:54:52;5.22;;;3.83;;
11191;SDS011;5652;48.406;10.820;2022-07-29T07:57:20;5.38;;;3.15;;
11191;SDS011;5652;48.406;10.820;2022-07-29T07:59:47;4.03;;;3.13;;
11191;SDS011;5652;48.406;10.820;2022-07-29T08:02:14;7.82;;;3.33;;
11191;SDS011;5652;48.406;10.820;2022-07-29T08:04:41;3.70;;;3.22;;
11191;SDS011;5652;48.406;10.820;2022-07-29T08:07:08;4.47;;;3.15;;
11191;SDS011;5652;48.406;10.820;2022-07-29T08:09:36;5.82;;;2.67;;
11191;SDS011;5652;48.406;10.820;2022-07-29T08:12:03;3.45;;;2.60;;
11191;SDS011;5652;48.406;10.820;2022-07-29T08:14:32;3.50;;;3.10;;
11191;SDS011;5652;48.406;10.820;2022-07-29T08:16:59;3.80;;;2.83;;
11191;SDS011;5652;48.406;10.820;2022-07-29T08:19:26;4.20;;;3.00;;
11191;SDS011;5652;48.406;10.820;2022-07-29T08:21:53;3.10;;;2.80;;
11191;SDS011;5652;48.406;10.820;2022-07-29T08:24:21;3.85;;;3.05;;
11191;SDS011;5652;48.406;10.820;2022-07-29T08:27:06;5.00;;;2.70;;
11191;SDS011;5652;48.406;10.820;2022-07-29T08:29:35;3.53;;;3.15;;
11191;SDS011;5652;48.406;10.820;2022-07-29T08:32:02;3.55;;;2.90;;
11191;SDS011;5652;48.406;10.820;2022-07-29T08:34:31;4.60;;;2.95;;
11191;SDS011;5652;48.406;10.820;2022-07-29T08:36:59;4.00;;;3.20;;
11191;SDS011;5652;48.406;10.820;2022-07-29T08:39:27;4.00;;;3.17;;
11191;SDS011;5652;48.406;10.820;2022-07-29T08:41:54;3.53;;;2.85;;
11191;SDS011;5652;48.406;10.820;2022-07-29T08:44:22;4.40;;;2.65;;
11191;SDS011;5652;48.406;10.820;2022-07-29T08:46:50;4.00;;;3.03;;
11191;SDS011;5652;48.406;10.820;2022-07-29T08:49:17;3.28;;;2.65;;
11191;SDS011;5652;48.406;10.820;2022-07-29T08:51:44;4.07;;;2.38;;
11191;SDS011;5652;48.406;10.820;2022-07-29T08:54:12;2.65;;;2.40;;
11191;SDS011;5652;48.406;10.820;2022-07-29T08:56:42;2.70;;;2.22;;
11191;SDS011;5652;48.406;10.820;2022-07-29T08:59:10;3.03;;;2.30;;
11191;SDS011;5652;48.406;10.820;2022-07-29T09:01:38;3.13;;;2.63;;
11191;SDS011;5652;48.406;10.820;2022-07-29T09:04:10;4.53;;;2.50;;
11191;SDS011;5652;48.406;10.820;2022-07-29T09:06:39;2.50;;;2.03;;
11191;SDS011;5652;48.406;10.820;2022-07-29T09:09:08;3.15;;;2.22;;
11191;SDS011;5652;48.406;10.820;2022-07-29T09:11:35;4.10;;;2.35;;
11191;SDS011;5652;48.406;10.820;2022-07-29T09:14:02;2.75;;;2.50;;
11191;SDS011;5652;48.406;10.820;2022-07-29T09:19:20;2.92;;;2.60;;
11191;SDS011;5652;48.406;10.820;2022-07-29T09:21:47;2.90;;;2.42;;
11191;SDS011;5652;48.406;10.820;2022-07-29T09:24:24;4.80;;;2.58;;
11191;SDS011;5652;48.406;10.820;2022-07-29T09:26:51;2.70;;;2.50;;
11191;SDS011;5652;48.406;10.820;2022-07-29T09:29:19;5.18;;;2.70;;
11191;SDS011;5652;48.406;10.820;2022-07-29T09:31:47;3.67;;;2.63;;
11191;SDS011;5652;48.406;10.820;2022-07-29T09:34:15;2.90;;;2.60;;
11191;SDS011;5652;48.406;10.820;2022-07-29T09:36:44;3.85;;;3.00;;
11191;SDS011;5652;48.406;10.820;2022-07-29T09:39:11;3.90;;;2.87;;
11191;SDS011;5652;48.406;10.820;2022-07-29T09:41:45;3.15;;;2.70;;
11191;SDS011;5652;48.406;10.820;2022-07-29T09:44:12;5.10;;;2.80;;
11191;SDS011;5652;48.406;10.820;2022-07-29T09:46:40;3.50;;;2.80;;
11191;SDS011;5652;48.406;10.820;2022-07-29T09:49:08;3.30;;;2.67;;
11191;SDS011;5652;48.406;10.820;2022-07-29T09:51:35;3.25;;;2.65;;
11191;SDS011;5652;48.406;10.820;2022-07-29T09:54:04;2.58;;;2.35;;
11191;SDS011;5652;48.406;10.820;2022-07-29T09:56:47;3.15;;;2.70;;
11191;SDS011;5652;48.406;10.820;2022-07-29T09:59:15;3.55;;;2.63;;
11191;SDS011;5652;48.406;10.820;2022-07-29T10:01:42;4.05;;;2.70;;
11191;SDS011;5652;48.406;10.820;2022-07-29T10:04:09;3.30;;;2.50;;
11191;SDS011;5652;48.406;10.820;2022-07-29T10:06:40;2.75;;;2.50;;
11191;SDS011;5652;48.406;10.820;2022-07-29T10:09:24;3.83;;;2.80;;
11191;SDS011;5652;48.406;10.820;2022-07-29T10:12:07;3.78;;;2.80;;
11191;SDS011;5652;48.406;10.820;2022-07-29T10:14:36;4.10;;;2.80;;
11191;SDS011;5652;48.406;10.820;2022-07-29T10:17:04;4.37;;;3.00;;
11191;SDS011;5652;48.406;10.820;2022-07-29T10:19:31;3.10;;;2.80;;
11191;SDS011;5652;48.406;10.820;2022-07-29T10:21:59;4.57;;;3.00;;
11191;SDS011;5652;48.406;10.820;2022-07-29T10:24:28;3.78;;;2.90;;
11191;SDS011;5652;48.406;10.820;2022-07-29T10:26:57;3.10;;;2.70;;
11191;SDS011;5652;48.406;10.820;2022-07-29T10:29:25;3.93;;;3.13;;
11191;SDS011;5652;48.406;10.820;2022-07-29T10:31:56;3.30;;;2.80;;
11191;SDS011;5652;48.406;10.820;2022-07-29T10:34:28;3.97;;;3.20;;
11191;SDS011;5652;48.406;10.820;2022-07-29T10:37:02;4.57;;;2.90;;
11191;SDS011;5652;48.406;10.820;2022-07-29T10:39:36;5.30;;;2.70;;
11191;SDS011;5652;48.406;10.820;2022-07-29T10:42:10;3.33;;;2.70;;
11191;SDS011;5652;48.406;10.820;2022-07-29T10:44:40;3.45;;;2.90;;
11191;SDS011;5652;48.406;10.820;2022-07-29T10:47:08;3.85;;;2.80;;
11191;SDS011;5652;48.406;10.820;2022-07-29T10:49:35;3.20;;;2.90;;
11191;SDS011;5652;48.406;10.820;2022-07-29T10:52:03;4.05;;;3.33;;
11191;SDS011;5652;48.406;10.820;2022-07-29T10:54:48;3.92;;;3.30;;
11191;SDS011;5652;48.406;10.820;2022-07-29T10:57:18;4.07;;;2.70;;
11191;SDS011;5652;48.406;10.820;2022-07-29T10:59:46;3.90;;;2.90;;
11191;SDS011;5652;48.406;10.820;2022-07-29T11:05:01;4.05;;;2.75;;
11191;SDS011;5652;48.406;10.820;2022-07-29T11:07:29;3.85;;;2.97;;
11191;SDS011;5652;48.406;10.820;2022-07-29T11:12:48;3.88;;;2.63;;
11191;SDS011;5652;48.406;10.820;2022-07-29T11:15:16;4.00;;;2.83;;
11191;SDS011;5652;48.406;10.820;2022-07-29T11:18:05;5.45;;;3.08;;
11191;SDS011;5652;48.406;10.820;2022-07-29T11:20:36;5.28;;;2.55;;
11191;SDS011;5652;48.406;10.820;2022-07-29T11:28:37;2.88;;;2.40;;
11191;SDS011;5652;48.406;10.820;2022-07-29T11:31:06;2.72;;;2.40;;
11191;SDS011;5652;48.406;10.820;2022-07-29T11:33:35;3.65;;;2.50;;
11191;SDS011;5652;48.406;10.820;2022-07-29T11:36:09;4.65;;;2.63;;
11191;SDS011;5652;48.406;10.820;2022-07-29T11:38:36;3.08;;;2.20;;
11191;SDS011;5652;48.406;10.820;2022-07-29T11:43:56;2.75;;;2.47;;
11191;SDS011;5652;48.406;10.820;2022-07-29T11:46:42;3.67;;;2.30;;
11191;SDS011;5652;48.406;10.820;2022-07-29T11:49:09;3.23;;;2.37;;
11191;SDS011;5652;48.406;10.820;2022-07-29T11:51:37;2.42;;;2.20;;
11191;SDS011;5652;48.406;10.820;2022-07-29T11:54:04;3.20;;;2.20;;
11191;SDS011;5652;48.406;10.820;2022-07-29T11:56:31;3.35;;;2.47;;
11191;SDS011;5652;48.406;10.820;2022-07-29T11:59:04;5.47;;;2.58;;
11191;SDS011;5652;48.406;10.820;2022-07-29T12:01:31;4.05;;;2.30;;
11191;SDS011;5652;48.406;10.820;2022-07-29T12:04:02;2.95;;;2.20;;
11191;SDS011;5652;48.406;10.820;2022-07-29T12:06:29;3.95;;;2.50;;
11191;SDS011;5652;48.406;10.820;2022-07-29T12:08:56;3.08;;;2.30;;
11191;SDS011;5652;48.406;10.820;2022-07-29T12:11:24;3.20;;;2.30;;
11191;SDS011;5652;48.406;10.820;2022-07-29T12:13:51;2.42;;;2.20;;
11191;SDS011;5652;48.406;10.820;2022-07-29T12:16:20;4.32;;;2.10;;
11191;SDS011;5652;48.406;10.820;2022-07-29T12:18:54;2.85;;;2.15;;
11191;SDS011;5652;48.406;10.820;2022-07-29T12:21:21;3.80;;;2.15;;
11191;SDS011;5652;48.406;10.820;2022-07-29T12:23:52;3.35;;;2.10;;
11191;SDS011;5652;48.406;10.820;2022-07-29T12:26:20;4.93;;;2.30;;
11191;SDS011;5652;48.406;10.820;2022-07-29T12:28:47;2.47;;;1.80;;
11191;SDS011;5652;48.406;10.820;2022-07-29T12:31:15;2.60;;;2.10;;
11191;SDS011;5652;48.406;10.820;2022-07-29T12:33:43;3.83;;;2.25;;
11191;SDS011;5652;48.406;10.820;2022-07-29T12:36:18;3.00;;;2.20;;
11191;SDS011;5652;48.406;10.820;2022-07-29T12:38:46;3.75;;;2.42;;
11191;SDS011;5652;48.406;10.820;2022-07-29T12:41:13;2.80;;;2.30;;
11191;SDS011;5652;48.406;10.820;2022-07-29T12:43:51;3.78;;;2.70;;
11191;SDS011;5652;48.406;10.820;2022-07-29T12:46:18;2.85;;;2.30;;
11191;SDS011;5652;48.406;10.820;2022-07-29T12:48:54;2.42;;;2.20;;
11191;SDS011;5652;48.406;10.820;2022-07-29T12:51:27;3.08;;;2.47;;
11191;SDS011;5652;48.406;10.820;2022-07-29T12:54:03;3.03;;;2.40;;
11191;SDS011;5652;48.406;10.820;2022-07-29T12:56:30;3.93;;;2.40;;
11191;SDS011;5652;48.406;10.820;2022-07-29T12:58:57;2.83;;;2.15;;
11191;SDS011;5652;48.406;10.820;2022-07-29T13:01:24;3.05;;;2.10;;
11191;SDS011;5652;48.406;10.820;2022-07-29T13:03:54;3.72;;;2.20;;
11191;SDS011;5652;48.406;10.820;2022-07-29T13:06:29;3.80;;;2.33;;
11191;SDS011;5652;48.406;10.820;2022-07-29T13:09:00;2.30;;;2.10;;
11191;SDS011;5652;48.406;10.820;2022-07-29T13:11:30;2.25;;;1.98;;
11191;SDS011;5652;48.406;10.820;2022-07-29T13:13:58;4.88;;;2.15;;
11191;SDS011;5652;48.406;10.820;2022-07-29T13:16:26;3.17;;;2.10;;
11191;SDS011;5652;48.406;10.820;2022-07-29T13:19:07;3.70;;;1.90;;
11191;SDS011;5652;48.406;10.820;2022-07-29T13:21:35;3.20;;;2.10;;
11191;SDS011;5652;48.406;10.820;2022-07-29T13:24:02;2.58;;;1.80;;
11191;SDS011;5652;48.406;10.820;2022-07-29T13:26:30;3.70;;;2.00;;
11191;SDS011;5652;48.406;10.820;2022-07-29T13:28:57;2.38;;;1.90;;
11191;SDS011;5652;48.406;10.820;2022-07-29T13:31:25;2.23;;;1.87;;
11191;SDS011;5652;48.406;10.820;2022-07-29T13:33:53;2.08;;;1.80;;
11191;SDS011;5652;48.406;10.820;2022-07-29T13:36:22;2.17;;;1.90;;
11191;SDS011;5652;48.406;10.820;2022-07-29T13:38:49;2.33;;;1.70;;
11191;SDS011;5652;48.406;10.820;2022-07-29T13:41:16;2.10;;;1.90;;
11191;SDS011;5652;48.406;10.820;2022-07-29T13:43:43;4.53;;;2.30;;
11191;SDS011;5652;48.406;10.820;2022-07-29T13:46:10;3.17;;;2.00;;
11191;SDS011;5652;48.406;10.820;2022-07-29T13:48:38;6.05;;;1.95;;
11191;SDS011;5652;48.406;10.820;2022-07-29T13:51:05;2.42;;;1.83;;
11191;SDS011;5652;48.406;10.820;2022-07-29T13:53:33;3.45;;;1.90;;
11191;SDS011;5652;48.406;10.820;2022-07-29T13:56:00;3.47;;;1.80;;
11191;SDS011;5652;48.406;10.820;2022-07-29T13:58:27;2.40;;;1.70;;
11191;SDS011;5652;48.406;10.820;2022-07-29T14:00:55;2.97;;;1.73;;
11191;SDS011;5652;48.406;10.820;2022-07-29T14:03:22;1.98;;;1.70;;
11191;SDS011;5652;48.406;10.820;2022-07-29T14:05:49;3.80;;;1.73;;
11191;SDS011;5652;48.406;10.820;2022-07-29T14:08:16;2.63;;;1.80;;
11191;SDS011;5652;48.406;10.820;2022-07-29T14:10:45;3.35;;;1.90;;
11191;SDS011;5652;48.406;10.820;2022-07-29T14:13:12;3.08;;;1.80;;
11191;SDS011;5652;48.406;10.820;2022-07-29T14:15:39;2.33;;;1.75;;
11191;SDS011;5652;48.406;10.820;2022-07-29T14:18:06;3.75;;;1.70;;
11191;SDS011;5652;48.406;10.820;2022-07-29T14:20:33;2.40;;;1.67;;
11191;SDS011;5652;48.406;10.820;2022-07-29T14:23:00;2.00;;;1.73;;
11191;SDS011;5652;48.406;10.820;2022-07-29T14:25:28;3.70;;;1.70;;
11191;SDS011;5652;48.406;10.820;2022-07-29T14:27:56;4.95;;;1.73;;
11191;SDS011;5652;48.406;10.820;2022-07-29T14:30:23;2.22;;;1.80;;
11191;SDS011;5652;48.406;10.820;2022-07-29T14:32:52;4.32;;;1.88;;
11191;SDS011;5652;48.406;10.820;2022-07-29T14:35:20;3.22;;;2.08;;
11191;SDS011;5652;48.406;10.820;2022-07-29T14:37:47;3.20;;;2.13;;
11191;SDS011;5652;48.406;10.820;2022-07-29T14:40:14;2.75;;;1.80;;
11191;SDS011;5652;48.406;10.820;2022-07-29T14:42:41;3.13;;;1.92;;
11191;SDS011;5652;48.406;10.820;2022-07-29T14:45:09;3.38;;;2.15;;
11191;SDS011;5652;48.406;10.820;2022-07-29T14:47:37;2.65;;;1.90;;
11191;SDS011;5652;48.406;10.820;2022-07-29T14:50:05;3.72;;;2.05;;
11191;SDS011;5652;48.406;10.820;2022-07-29T14:52:32;2.95;;;1.83;;
11191;SDS011;5652;48.406;10.820;2022-07-29T14:54:59;3.67;;;2.00;;
11191;SDS011;5652;48.406;10.820;2022-07-29T14:57:26;2.73;;;2.00;;
11191;SDS011;5652;48.406;10.820;2022-07-29T14:59:53;3.93;;;1.90;;
11191;SDS011;5652;48.406;10.820;2022-07-29T15:02:22;2.47;;;2.00;;
11191;SDS011;5652;48.406;10.820;2022-07-29T15:04:49;4.18;;;1.90;;
11191;SDS011;5652;48.406;10.820;2022-07-29T15:07:17;2.42;;;2.05;;
11191;SDS011;5652;48.406;10.820;2022-07-29T15:09:44;2.60;;;2.30;;
11191;SDS011;5652;48.406;10.820;2022-07-29T15:12:12;2.97;;;2.10;;
11191;SDS011;5652;48.406;10.820;2022-07-29T15:14:40;3.20;;;2.25;;
11191;SDS011;5652;48.406;10.820;2022-07-29T15:17:07;3.30;;;2.30;;